sensor_id;sensor_type;location;lat;lon;timestamp;pressure;altitude;pressure_sealevel;temperature;humidity
57594;BME280;43423;46.510;6.686;2024-01-30T00:01:42;97894.06;;;5.84;79.31
57594;BME280;43423;46.510;6.686;2024-01-30T00:04:08;97879.44;;;6.02;77.52
57594;BME280;43423;46.510;6.686;2024-01-30T00:06:34;97885.47;;;6.17;76.67
57594;BME280;43423;46.510;6.686;2024-01-30T00:09:00;97880.91;;;6.06;76.55
57594;BME280;43423;46.510;6.686;2024-01-30T00:11:25;97891.78;;;6.10;76.91
57594;BME280;43423;46.510;6.686;2024-01-30T00:13:52;97882.41;;;6.11;76.62
57594;BME280;43423;46.510;6.686;2024-01-30T00:16:21;97884.16;;;5.98;77.75
57594;BME280;43423;46.510;6.686;2024-01-30T00:18:47;97895.06;;;6.01;77.92
57594;BME280;43423;46.510;6.686;2024-01-30T00:21:13;97888.44;;;5.99;77.59
57594;BME280;43423;46.510;6.686;2024-01-30T00:23:39;97889.59;;;6.01;77.69
57594;BME280;43423;46.510;6.686;2024-01-30T00:26:04;97883.28;;;6.04;77.46
57594;BME280;43423;46.510;6.686;2024-01-30T00:28:30;97880.50;;;6.08;77.07
57594;BME280;43423;46.510;6.686;2024-01-30T00:30:56;97879.06;;;6.00;77.84
57594;BME280;43423;46.510;6.686;2024-01-30T00:33:22;97885.53;;;5.82;79.65
57594;BME280;43423;46.510;6.686;2024-01-30T00:35:47;97888.34;;;5.75;81.02
57594;BME280;43423;46.510;6.686;2024-01-30T00:38:13;97888.16;;;5.89;79.91
57594;BME280;43423;46.510;6.686;2024-01-30T00:40:39;97880.16;;;5.75;80.04
57594;BME280;43423;46.510;6.686;2024-01-30T00:43:04;97896.41;;;5.86;79.53
57594;BME280;43423;46.510;6.686;2024-01-30T00:45:30;97892.91;;;5.85;80.00
57594;BME280;43423;46.510;6.686;2024-01-30T00:47:55;97900.88;;;5.73;80.82
57594;BME280;43423;46.510;6.686;2024-01-30T00:50:21;97904.28;;;5.80;80.62
57594;BME280;43423;46.510;6.686;2024-01-30T00:52:47;97897.59;;;5.85;79.71
57594;BME280;43423;46.510;6.686;2024-01-30T00:55:12;97895.00;;;5.74;79.87
57594;BME280;43423;46.510;6.686;2024-01-30T00:57:40;97895.34;;;5.76;80.14
57594;BME280;43423;46.510;6.686;2024-01-30T01:00:07;97900.47;;;5.74;80.98
57594;BME280;43423;46.510;6.686;2024-01-30T01:02:35;97896.16;;;5.77;80.89
57594;BME280;43423;46.510;6.686;2024-01-30T01:05:01;97900.81;;;5.76;81.97
57594;BME280;43423;46.510;6.686;2024-01-30T01:07:27;97888.94;;;5.63;83.12
57594;BME280;43423;46.510;6.686;2024-01-30T01:09:52;97895.00;;;5.74;82.41
57594;BME280;43423;46.510;6.686;2024-01-30T01:12:18;97889.97;;;5.73;82.71
57594;BME280;43423;46.510;6.686;2024-01-30T01:14:44;97886.00;;;5.77;81.89
57594;BME280;43423;46.510;6.686;2024-01-30T01:17:09;97890.38;;;5.71;82.59
57594;BME280;43423;46.510;6.686;2024-01-30T01:19:35;97892.94;;;5.82;81.75
57594;BME280;43423;46.510;6.686;2024-01-30T01:22:01;97903.09;;;5.81;80.93
57594;BME280;43423;46.510;6.686;2024-01-30T01:24:26;97892.16;;;5.81;80.89
57594;BME280;43423;46.510;6.686;2024-01-30T01:26:52;97889.69;;;5.64;82.78
57594;BME280;43423;46.510;6.686;2024-01-30T01:29:18;97884.44;;;5.76;82.46
57594;BME280;43423;46.510;6.686;2024-01-30T01:31:43;97892.59;;;5.80;81.33
57594;BME280;43423;46.510;6.686;2024-01-30T01:34:10;97889.91;;;5.76;81.33
57594;BME280;43423;46.510;6.686;2024-01-30T01:36:36;97889.50;;;5.78;80.79
57594;BME280;43423;46.510;6.686;2024-01-30T01:39:01;97904.63;;;5.82;80.08
57594;BME280;43423;46.510;6.686;2024-01-30T01:41:32;97895.34;;;5.76;80.36
57594;BME280;43423;46.510;6.686;2024-01-30T01:43:59;97902.38;;;5.77;79.96
57594;BME280;43423;46.510;6.686;2024-01-30T01:46:27;97899.28;;;5.75;80.45
57594;BME280;43423;46.510;6.686;2024-01-30T01:48:54;97890.63;;;5.80;79.88
57594;BME280;43423;46.510;6.686;2024-01-30T01:51:22;97888.75;;;5.77;79.78
57594;BME280;43423;46.510;6.686;2024-01-30T01:53:48;97889.59;;;5.71;79.62
57594;BME280;43423;46.510;6.686;2024-01-30T01:56:14;97888.88;;;5.67;80.71
57594;BME280;43423;46.510;6.686;2024-01-30T01:58:40;97896.97;;;5.74;80.26
57594;BME280;43423;46.510;6.686;2024-01-30T02:01:07;97885.84;;;5.61;80.91
57594;BME280;43423;46.510;6.686;2024-01-30T02:03:34;97884.66;;;5.62;81.52
57594;BME280;43423;46.510;6.686;2024-01-30T02:06:00;97878.00;;;5.63;80.38
57594;BME280;43423;46.510;6.686;2024-01-30T02:08:27;97877.59;;;5.65;80.23
57594;BME280;43423;46.510;6.686;2024-01-30T02:10:53;97879.28;;;5.55;81.96
57594;BME280;43423;46.510;6.686;2024-01-30T02:13:21;97875.38;;;5.56;81.70
57594;BME280;43423;46.510;6.686;2024-01-30T02:15:51;97870.19;;;5.65;80.07
57594;BME280;43423;46.510;6.686;2024-01-30T02:18:16;97881.53;;;5.60;80.32
57594;BME280;43423;46.510;6.686;2024-01-30T02:20:43;97874.94;;;5.61;81.01
57594;BME280;43423;46.510;6.686;2024-01-30T02:23:09;97884.19;;;5.67;79.90
57594;BME280;43423;46.510;6.686;2024-01-30T02:25:39;97879.59;;;5.60;80.06
57594;BME280;43423;46.510;6.686;2024-01-30T02:28:10;97882.44;;;5.53;81.03
57594;BME280;43423;46.510;6.686;2024-01-30T02:30:40;97867.59;;;5.54;81.38
57594;BME280;43423;46.510;6.686;2024-01-30T02:33:07;97871.47;;;5.57;80.92
57594;BME280;43423;46.510;6.686;2024-01-30T02:35:33;97867.63;;;5.51;80.89
57594;BME280;43423;46.510;6.686;2024-01-30T02:37:59;97862.91;;;5.55;81.50
57594;BME280;43423;46.510;6.686;2024-01-30T02:40:25;97870.72;;;5.53;81.56
57594;BME280;43423;46.510;6.686;2024-01-30T02:42:51;97866.59;;;5.41;81.14
57594;BME280;43423;46.510;6.686;2024-01-30T02:45:17;97873.78;;;5.58;80.46
57594;BME280;43423;46.510;6.686;2024-01-30T02:47:42;97875.72;;;5.58;80.20
57594;BME280;43423;46.510;6.686;2024-01-30T02:50:09;97869.25;;;5.48;81.64
57594;BME280;43423;46.510;6.686;2024-01-30T02:52:34;97875.72;;;5.58;80.82
57594;BME280;43423;46.510;6.686;2024-01-30T02:55:01;97882.22;;;5.68;81.09
57594;BME280;43423;46.510;6.686;2024-01-30T02:57:26;97876.72;;;5.71;81.82
57594;BME280;43423;46.510;6.686;2024-01-30T02:59:52;97859.25;;;5.65;81.06
57594;BME280;43423;46.510;6.686;2024-01-30T03:02:18;97864.31;;;5.67;81.10
57594;BME280;43423;46.510;6.686;2024-01-30T03:04:43;97869.84;;;5.59;81.66
57594;BME280;43423;46.510;6.686;2024-01-30T03:07:09;97864.88;;;5.54;81.99
57594;BME280;43423;46.510;6.686;2024-01-30T03:09:36;97869.09;;;5.59;81.64
57594;BME280;43423;46.510;6.686;2024-01-30T03:12:02;97854.78;;;5.51;82.26
57594;BME280;43423;46.510;6.686;2024-01-30T03:14:32;97863.00;;;5.48;83.88
57594;BME280;43423;46.510;6.686;2024-01-30T03:16:58;97866.84;;;5.54;83.63
57594;BME280;43423;46.510;6.686;2024-01-30T03:19:24;97877.28;;;5.59;84.89
57594;BME280;43423;46.510;6.686;2024-01-30T03:21:50;97871.53;;;5.53;84.40
57594;BME280;43423;46.510;6.686;2024-01-30T03:24:15;97866.88;;;5.50;85.25
57594;BME280;43423;46.510;6.686;2024-01-30T03:26:41;97865.00;;;5.44;86.12
57594;BME280;43423;46.510;6.686;2024-01-30T03:29:07;97862.69;;;5.42;86.63
57594;BME280;43423;46.510;6.686;2024-01-30T03:31:32;97864.38;;;5.32;87.81
57594;BME280;43423;46.510;6.686;2024-01-30T03:33:58;97869.47;;;5.30;88.58
57594;BME280;43423;46.510;6.686;2024-01-30T03:36:24;97865.78;;;5.14;89.71
57594;BME280;43423;46.510;6.686;2024-01-30T03:38:50;97860.69;;;5.16;91.13
57594;BME280;43423;46.510;6.686;2024-01-30T03:41:15;97846.19;;;5.22;90.37
57594;BME280;43423;46.510;6.686;2024-01-30T03:43:41;97859.19;;;5.42;89.90
57594;BME280;43423;46.510;6.686;2024-01-30T03:46:07;97853.66;;;5.49;89.23
57594;BME280;43423;46.510;6.686;2024-01-30T03:48:33;97853.59;;;5.52;89.56
57594;BME280;43423;46.510;6.686;2024-01-30T03:50:58;97853.66;;;5.49;88.78
57594;BME280;43423;46.510;6.686;2024-01-30T03:53:24;97849.28;;;5.24;89.42
57594;BME280;43423;46.510;6.686;2024-01-30T03:55:50;97846.38;;;5.39;86.40
57594;BME280;43423;46.510;6.686;2024-01-30T03:58:15;97846.75;;;5.41;84.71
57594;BME280;43423;46.510;6.686;2024-01-30T04:00:41;97844.47;;;5.36;84.98
57594;BME280;43423;46.510;6.686;2024-01-30T04:03:07;97852.34;;;5.30;85.38
57594;BME280;43423;46.510;6.686;2024-01-30T04:05:32;97855.44;;;5.28;86.87
57594;BME280;43423;46.510;6.686;2024-01-30T04:07:58;97842.22;;;5.30;85.94
57594;BME280;43423;46.510;6.686;2024-01-30T04:10:24;97847.56;;;5.38;86.61
57594;BME280;43423;46.510;6.686;2024-01-30T04:12:52;97850.22;;;5.41;86.79
57594;BME280;43423;46.510;6.686;2024-01-30T04:15:19;97845.03;;;5.23;87.30
57594;BME280;43423;46.510;6.686;2024-01-30T04:17:45;97861.78;;;5.22;87.85
57594;BME280;43423;46.510;6.686;2024-01-30T04:20:14;97857.09;;;5.22;86.89
57594;BME280;43423;46.510;6.686;2024-01-30T04:22:43;97858.94;;;5.29;86.15
57594;BME280;43423;46.510;6.686;2024-01-30T04:25:09;97859.34;;;5.31;87.43
57594;BME280;43423;46.510;6.686;2024-01-30T04:27:34;97862.78;;;5.35;86.59
57594;BME280;43423;46.510;6.686;2024-01-30T04:30:00;97854.91;;;5.10;88.77
57594;BME280;43423;46.510;6.686;2024-01-30T04:32:26;97864.63;;;5.11;90.04
57594;BME280;43423;46.510;6.686;2024-01-30T04:34:51;97863.28;;;5.26;89.67
57594;BME280;43423;46.510;6.686;2024-01-30T04:37:17;97866.97;;;5.43;87.89
57594;BME280;43423;46.510;6.686;2024-01-30T04:39:42;97873.25;;;5.40;88.82
57594;BME280;43423;46.510;6.686;2024-01-30T04:42:08;97860.41;;;5.37;88.67
57594;BME280;43423;46.510;6.686;2024-01-30T04:44:34;97875.09;;;5.47;88.09
57594;BME280;43423;46.510;6.686;2024-01-30T04:47:00;97867.72;;;5.44;87.31
57594;BME280;43423;46.510;6.686;2024-01-30T04:49:27;97866.69;;;5.34;89.52
57594;BME280;43423;46.510;6.686;2024-01-30T04:51:53;97877.84;;;5.47;88.51
57594;BME280;43423;46.510;6.686;2024-01-30T04:54:18;97879.38;;;5.48;88.54
57594;BME280;43423;46.510;6.686;2024-01-30T04:56:44;97882.19;;;5.41;88.78
57594;BME280;43423;46.510;6.686;2024-01-30T04:59:09;97882.22;;;5.37;88.46
57594;BME280;43423;46.510;6.686;2024-01-30T05:01:35;97874.00;;;5.41;89.43
57594;BME280;43423;46.510;6.686;2024-01-30T05:04:01;97873.06;;;5.24;89.91
57594;BME280;43423;46.510;6.686;2024-01-30T05:06:27;97870.00;;;5.18;90.73
57594;BME280;43423;46.510;6.686;2024-01-30T05:08:53;97870.28;;;5.27;90.59
57594;BME280;43423;46.510;6.686;2024-01-30T05:11:19;97879.50;;;5.37;90.11
57594;BME280;43423;46.510;6.686;2024-01-30T05:13:44;97876.50;;;5.28;89.59
57594;BME280;43423;46.510;6.686;2024-01-30T05:16:10;97878.94;;;5.22;90.00
57594;BME280;43423;46.510;6.686;2024-01-30T05:18:36;97883.19;;;5.23;89.96
57594;BME280;43423;46.510;6.686;2024-01-30T05:21:02;97884.75;;;5.21;89.73
57594;BME280;43423;46.510;6.686;2024-01-30T05:23:28;97895.38;;;5.15;90.03
57594;BME280;43423;46.510;6.686;2024-01-30T05:25:54;97888.38;;;5.14;88.21
57594;BME280;43423;46.510;6.686;2024-01-30T05:28:20;97892.25;;;5.13;86.79
57594;BME280;43423;46.510;6.686;2024-01-30T05:30:45;97890.06;;;5.01;86.58
57594;BME280;43423;46.510;6.686;2024-01-30T05:33:11;97898.88;;;5.12;86.02
57594;BME280;43423;46.510;6.686;2024-01-30T05:35:38;97895.78;;;5.14;86.70
57594;BME280;43423;46.510;6.686;2024-01-30T05:38:03;97899.06;;;4.98;89.09
57594;BME280;43423;46.510;6.686;2024-01-30T05:40:32;97897.75;;;5.10;88.19
57594;BME280;43423;46.510;6.686;2024-01-30T05:42:58;97906.00;;;5.02;88.14
57594;BME280;43423;46.510;6.686;2024-01-30T05:45:26;97905.16;;;5.09;88.90
57594;BME280;43423;46.510;6.686;2024-01-30T05:47:52;97907.06;;;5.12;87.84
57594;BME280;43423;46.510;6.686;2024-01-30T05:50:19;97914.13;;;5.10;88.46
57594;BME280;43423;46.510;6.686;2024-01-30T05:52:45;97911.50;;;4.99;89.02
57594;BME280;43423;46.510;6.686;2024-01-30T05:55:11;97907.16;;;5.05;89.51
57594;BME280;43423;46.510;6.686;2024-01-30T05:57:38;97896.28;;;5.01;88.55
57594;BME280;43423;46.510;6.686;2024-01-30T06:00:05;97913.41;;;5.02;90.24
57594;BME280;43423;46.510;6.686;2024-01-30T06:02:31;97914.19;;;5.02;90.53
57594;BME280;43423;46.510;6.686;2024-01-30T06:04:56;97915.78;;;5.00;90.70
57594;BME280;43423;46.510;6.686;2024-01-30T06:07:22;97920.47;;;4.99;91.27
57594;BME280;43423;46.510;6.686;2024-01-30T06:09:48;97916.28;;;4.91;93.13
57594;BME280;43423;46.510;6.686;2024-01-30T06:12:13;97920.41;;;5.03;91.51
57594;BME280;43423;46.510;6.686;2024-01-30T06:14:39;97918.06;;;5.05;92.74
57594;BME280;43423;46.510;6.686;2024-01-30T06:17:08;97919.31;;;4.97;92.87
57594;BME280;43423;46.510;6.686;2024-01-30T06:19:34;97924.31;;;5.06;92.61
57594;BME280;43423;46.510;6.686;2024-01-30T06:22:00;97930.63;;;4.95;94.69
57594;BME280;43423;46.510;6.686;2024-01-30T06:24:25;97917.00;;;4.95;92.78
57594;BME280;43423;46.510;6.686;2024-01-30T06:26:51;97939.84;;;5.05;92.02
57594;BME280;43423;46.510;6.686;2024-01-30T06:29:17;97923.59;;;4.98;92.73
57594;BME280;43423;46.510;6.686;2024-01-30T06:31:42;97930.97;;;5.01;92.48
57594;BME280;43423;46.510;6.686;2024-01-30T06:34:11;97936.00;;;5.02;92.89
57594;BME280;43423;46.510;6.686;2024-01-30T06:36:37;97927.81;;;5.06;92.26
57594;BME280;43423;46.510;6.686;2024-01-30T06:39:03;97938.31;;;5.04;91.91
57594;BME280;43423;46.510;6.686;2024-01-30T06:41:29;97929.00;;;5.01;90.96
57594;BME280;43423;46.510;6.686;2024-01-30T06:43:56;97920.91;;;4.94;91.39
57594;BME280;43423;46.510;6.686;2024-01-30T06:46:21;97939.06;;;5.08;91.21
57594;BME280;43423;46.510;6.686;2024-01-30T06:48:47;97935.63;;;5.00;91.27
57594;BME280;43423;46.510;6.686;2024-01-30T06:51:13;97943.78;;;5.04;90.92
57594;BME280;43423;46.510;6.686;2024-01-30T06:53:38;97938.38;;;5.00;89.68
57594;BME280;43423;46.510;6.686;2024-01-30T06:56:05;97940.31;;;5.00;91.44
57594;BME280;43423;46.510;6.686;2024-01-30T06:58:30;97945.31;;;5.05;91.39
57594;BME280;43423;46.510;6.686;2024-01-30T07:00:56;97952.34;;;5.02;92.83
57594;BME280;43423;46.510;6.686;2024-01-30T07:03:22;97950.88;;;4.98;92.94
57594;BME280;43423;46.510;6.686;2024-01-30T07:05:47;97952.69;;;5.08;93.31
57594;BME280;43423;46.510;6.686;2024-01-30T07:08:15;97965.19;;;5.06;93.88
57594;BME280;43423;46.510;6.686;2024-01-30T07:10:45;97963.94;;;5.14;93.20
57594;BME280;43423;46.510;6.686;2024-01-30T07:13:11;97957.66;;;5.17;93.51
57594;BME280;43423;46.510;6.686;2024-01-30T07:15:37;97962.50;;;5.02;95.54
57594;BME280;43423;46.510;6.686;2024-01-30T07:18:03;97968.31;;;5.04;95.89
57594;BME280;43423;46.510;6.686;2024-01-30T07:20:30;97967.91;;;5.06;97.03
57594;BME280;43423;46.510;6.686;2024-01-30T07:22:58;97963.53;;;5.15;98.13
57594;BME280;43423;46.510;6.686;2024-01-30T07:25:24;97963.91;;;5.17;98.08
57594;BME280;43423;46.510;6.686;2024-01-30T07:27:55;97971.66;;;5.19;97.04
57594;BME280;43423;46.510;6.686;2024-01-30T07:30:21;97982.75;;;5.39;96.78
57594;BME280;43423;46.510;6.686;2024-01-30T07:32:47;97981.59;;;5.40;97.08
57594;BME280;43423;46.510;6.686;2024-01-30T07:35:13;97975.66;;;5.45;95.78
57594;BME280;43423;46.510;6.686;2024-01-30T07:37:39;97978.22;;;5.59;94.36
57594;BME280;43423;46.510;6.686;2024-01-30T07:40:06;97976.78;;;5.81;92.66
57594;BME280;43423;46.510;6.686;2024-01-30T07:42:32;97985.66;;;5.93;91.95
57594;BME280;43423;46.510;6.686;2024-01-30T07:44:58;97989.22;;;5.86;93.35
57594;BME280;43423;46.510;6.686;2024-01-30T07:47:24;97991.84;;;6.51;90.98
57594;BME280;43423;46.510;6.686;2024-01-30T07:49:49;98002.28;;;6.83;88.73
57594;BME280;43423;46.510;6.686;2024-01-30T07:52:15;97998.66;;;6.89;89.43
57594;BME280;43423;46.510;6.686;2024-01-30T07:54:51;98000.28;;;7.50;86.30
57594;BME280;43423;46.510;6.686;2024-01-30T07:57:18;98007.97;;;7.78;85.06
57594;BME280;43423;46.510;6.686;2024-01-30T07:59:44;98009.19;;;8.13;84.79
57594;BME280;43423;46.510;6.686;2024-01-30T08:02:11;98009.81;;;8.21;84.42
57594;BME280;43423;46.510;6.686;2024-01-30T08:04:36;98009.41;;;8.03;84.82
57594;BME280;43423;46.510;6.686;2024-01-30T08:07:03;98010.00;;;8.30;83.41
57594;BME280;43423;46.510;6.686;2024-01-30T08:09:28;98015.03;;;8.52;82.27
57594;BME280;43423;46.510;6.686;2024-01-30T08:11:54;98020.09;;;8.53;81.31
57594;BME280;43423;46.510;6.686;2024-01-30T08:14:19;98014.78;;;8.26;83.20
57594;BME280;43423;46.510;6.686;2024-01-30T08:16:45;98012.53;;;8.21;84.57
57594;BME280;43423;46.510;6.686;2024-01-30T08:19:11;98016.13;;;7.82;88.04
57594;BME280;43423;46.510;6.686;2024-01-30T08:21:37;98016.72;;;8.09;86.32
57594;BME280;43423;46.510;6.686;2024-01-30T08:24:06;98021.81;;;8.47;84.96
57594;BME280;43423;46.510;6.686;2024-01-30T08:26:32;98025.41;;;8.60;83.96
57594;BME280;43423;46.510;6.686;2024-01-30T08:28:58;98017.09;;;8.28;84.16
57594;BME280;43423;46.510;6.686;2024-01-30T08:31:24;98019.34;;;7.77;86.60
57594;BME280;43423;46.510;6.686;2024-01-30T08:33:49;98016.31;;;7.91;87.43
57594;BME280;43423;46.510;6.686;2024-01-30T08:36:16;98010.72;;;7.98;86.48
57594;BME280;43423;46.510;6.686;2024-01-30T08:38:41;98020.16;;;7.74;87.09
57594;BME280;43423;46.510;6.686;2024-01-30T08:41:08;98017.25;;;7.84;86.72
57594;BME280;43423;46.510;6.686;2024-01-30T08:43:34;98023.78;;;8.27;84.83
57594;BME280;43423;46.510;6.686;2024-01-30T08:46:00;98019.34;;;8.33;83.84
57594;BME280;43423;46.510;6.686;2024-01-30T08:48:26;98029.50;;;8.52;83.10
57594;BME280;43423;46.510;6.686;2024-01-30T08:50:51;98022.09;;;8.33;83.53
57594;BME280;43423;46.510;6.686;2024-01-30T08:53:17;98026.53;;;8.27;83.29
57594;BME280;43423;46.510;6.686;2024-01-30T08:55:43;98016.38;;;8.07;84.39
57594;BME280;43423;46.510;6.686;2024-01-30T08:58:08;98026.09;;;7.92;85.22
57594;BME280;43423;46.510;6.686;2024-01-30T09:00:34;98024.13;;;7.93;86.13
57594;BME280;43423;46.510;6.686;2024-01-30T09:03:00;98034.16;;;7.99;84.92
57594;BME280;43423;46.510;6.686;2024-01-30T09:05:26;98022.47;;;8.35;82.73
57594;BME280;43423;46.510;6.686;2024-01-30T09:07:51;98022.31;;;8.58;81.65
57594;BME280;43423;46.510;6.686;2024-01-30T09:10:17;98031.84;;;8.70;80.34
57594;BME280;43423;46.510;6.686;2024-01-30T09:12:42;98026.28;;;8.57;81.05
57594;BME280;43423;46.510;6.686;2024-01-30T09:15:08;98026.44;;;8.83;80.53
57594;BME280;43423;46.510;6.686;2024-01-30T09:17:34;98029.56;;;8.85;79.90
57594;BME280;43423;46.510;6.686;2024-01-30T09:20:00;98034.50;;;8.90;80.71
57594;BME280;43423;46.510;6.686;2024-01-30T09:22:25;98027.47;;;9.21;80.46
57594;BME280;43423;46.510;6.686;2024-01-30T09:24:51;98031.00;;;9.51;76.66
57594;BME280;43423;46.510;6.686;2024-01-30T09:27:17;98034.75;;;9.28;77.01
57594;BME280;43423;46.510;6.686;2024-01-30T09:29:43;98022.22;;;9.27;77.42
57594;BME280;43423;46.510;6.686;2024-01-30T09:32:08;98029.94;;;9.32;77.53
57594;BME280;43423;46.510;6.686;2024-01-30T09:34:34;98032.69;;;9.16;78.26
57594;BME280;43423;46.510;6.686;2024-01-30T09:37:00;98029.44;;;9.21;78.18
57594;BME280;43423;46.510;6.686;2024-01-30T09:39:26;98027.63;;;9.31;78.13
57594;BME280;43423;46.510;6.686;2024-01-30T09:42:00;98037.09;;;9.59;77.77
57594;BME280;43423;46.510;6.686;2024-01-30T09:44:29;98038.13;;;9.77;76.54
57594;BME280;43423;46.510;6.686;2024-01-30T09:46:55;98041.00;;;9.74;75.87
57594;BME280;43423;46.510;6.686;2024-01-30T09:49:22;98040.19;;;10.02;75.35
57594;BME280;43423;46.510;6.686;2024-01-30T09:51:50;98047.31;;;10.42;73.18
57594;BME280;43423;46.510;6.686;2024-01-30T09:54:17;98045.78;;;10.41;73.53
57594;BME280;43423;46.510;6.686;2024-01-30T09:56:43;98041.09;;;10.12;74.81
57594;BME280;43423;46.510;6.686;2024-01-30T09:59:09;98058.31;;;10.29;73.20
57594;BME280;43423;46.510;6.686;2024-01-30T10:01:36;98043.72;;;10.70;73.21
57594;BME280;43423;46.510;6.686;2024-01-30T10:04:02;98046.03;;;10.84;70.88
57594;BME280;43423;46.510;6.686;2024-01-30T10:06:28;98048.53;;;10.66;71.03
57594;BME280;43423;46.510;6.686;2024-01-30T10:08:54;98049.28;;;11.05;69.10
57594;BME280;43423;46.510;6.686;2024-01-30T10:11:19;98050.31;;;10.73;69.86
57594;BME280;43423;46.510;6.686;2024-01-30T10:13:45;98047.25;;;10.16;72.25
57594;BME280;43423;46.510;6.686;2024-01-30T10:16:13;98054.41;;;10.68;71.44
57594;BME280;43423;46.510;6.686;2024-01-30T10:18:41;98049.75;;;10.40;71.92
57594;BME280;43423;46.510;6.686;2024-01-30T10:21:07;98045.56;;;10.48;71.52
57594;BME280;43423;46.510;6.686;2024-01-30T10:23:33;98049.47;;;10.21;72.68
57594;BME280;43423;46.510;6.686;2024-01-30T10:25:59;98051.84;;;10.36;72.19
57594;BME280;43423;46.510;6.686;2024-01-30T10:28:27;98048.09;;;10.42;73.32
57594;BME280;43423;46.510;6.686;2024-01-30T10:30:58;98050.41;;;10.95;71.15
57594;BME280;43423;46.510;6.686;2024-01-30T10:33:30;98046.81;;;11.32;69.30
57594;BME280;43423;46.510;6.686;2024-01-30T10:36:05;98038.63;;;11.41;68.86
57594;BME280;43423;46.510;6.686;2024-01-30T10:38:32;98045.38;;;11.28;68.59
57594;BME280;43423;46.510;6.686;2024-01-30T10:40:59;98043.00;;;11.04;69.58
57594;BME280;43423;46.510;6.686;2024-01-30T10:43:32;98040.47;;;11.10;70.20
57594;BME280;43423;46.510;6.686;2024-01-30T10:46:12;98035.06;;;11.19;69.24
57594;BME280;43423;46.510;6.686;2024-01-30T10:48:43;98040.19;;;10.57;72.10
57594;BME280;43423;46.510;6.686;2024-01-30T10:51:11;98032.91;;;10.88;70.93
57594;BME280;43423;46.510;6.686;2024-01-30T10:53:38;98036.66;;;10.82;70.41
57594;BME280;43423;46.510;6.686;2024-01-30T10:56:04;98039.09;;;10.67;71.51
57594;BME280;43423;46.510;6.686;2024-01-30T10:58:31;98034.53;;;11.11;70.13
57594;BME280;43423;46.510;6.686;2024-01-30T11:00:57;98027.94;;;11.09;70.29
57594;BME280;43423;46.510;6.686;2024-01-30T11:03:24;98033.16;;;11.63;68.16
57594;BME280;43423;46.510;6.686;2024-01-30T11:05:51;98036.38;;;11.62;66.58
57594;BME280;43423;46.510;6.686;2024-01-30T11:08:26;98028.78;;;11.53;67.06
57594;BME280;43423;46.510;6.686;2024-01-30T11:10:58;98019.75;;;11.53;66.89
57594;BME280;43423;46.510;6.686;2024-01-30T11:13:29;98030.28;;;11.67;66.98
57594;BME280;43423;46.510;6.686;2024-01-30T11:15:55;98027.34;;;11.27;67.42
57594;BME280;43423;46.510;6.686;2024-01-30T11:18:30;98017.19;;;10.76;70.35
57594;BME280;43423;46.510;6.686;2024-01-30T11:21:00;98012.78;;;10.92;69.68
57594;BME280;43423;46.510;6.686;2024-01-30T11:23:30;98006.84;;;10.55;73.13
57594;BME280;43423;46.510;6.686;2024-01-30T11:25:57;98010.25;;;10.46;73.48
57594;BME280;43423;46.510;6.686;2024-01-30T11:28:23;98008.25;;;10.21;74.35
57594;BME280;43423;46.510;6.686;2024-01-30T11:30:49;98006.34;;;10.05;75.94
57594;BME280;43423;46.510;6.686;2024-01-30T11:33:30;98003.63;;;9.64;77.42
57594;BME280;43423;46.510;6.686;2024-01-30T11:35:57;98006.81;;;9.46;78.65
57594;BME280;43423;46.510;6.686;2024-01-30T11:38:26;98011.13;;;9.31;79.74
57594;BME280;43423;46.510;6.686;2024-01-30T11:40:54;98000.31;;;9.40;80.52
57594;BME280;43423;46.510;6.686;2024-01-30T11:43:20;98006.16;;;9.42;79.30
57594;BME280;43423;46.510;6.686;2024-01-30T11:45:45;97999.31;;;9.34;80.10
57594;BME280;43423;46.510;6.686;2024-01-30T11:48:12;98003.84;;;9.24;80.72
57594;BME280;43423;46.510;6.686;2024-01-30T11:50:39;98008.09;;;9.12;81.71
57594;BME280;43423;46.510;6.686;2024-01-30T11:53:05;98002.31;;;9.23;81.16
57594;BME280;43423;46.510;6.686;2024-01-30T11:55:31;98002.69;;;8.76;83.60
57594;BME280;43423;46.510;6.686;2024-01-30T11:57:58;98003.91;;;8.75;83.66
57594;BME280;43423;46.510;6.686;2024-01-30T12:00:23;98000.06;;;8.89;84.10
57594;BME280;43423;46.510;6.686;2024-01-30T12:02:51;98002.28;;;9.10;83.44
57594;BME280;43423;46.510;6.686;2024-01-30T12:05:19;97997.63;;;9.07;81.77
57594;BME280;43423;46.510;6.686;2024-01-30T12:07:45;97996.59;;;9.17;82.36
57594;BME280;43423;46.510;6.686;2024-01-30T12:10:12;97984.78;;;9.04;82.70
57594;BME280;43423;46.510;6.686;2024-01-30T12:12:41;97971.91;;;9.17;81.89
57594;BME280;43423;46.510;6.686;2024-01-30T12:15:08;97983.75;;;9.43;82.39
57594;BME280;43423;46.510;6.686;2024-01-30T12:17:34;97970.56;;;9.09;82.19
57594;BME280;43423;46.510;6.686;2024-01-30T12:20:07;97980.25;;;9.43;82.30
57594;BME280;43423;46.510;6.686;2024-01-30T12:22:36;97980.25;;;9.72;80.25
57594;BME280;43423;46.510;6.686;2024-01-30T12:25:10;97971.69;;;9.41;81.44
57594;BME280;43423;46.510;6.686;2024-01-30T12:27:37;97972.72;;;9.31;82.40
57594;BME280;43423;46.510;6.686;2024-01-30T12:30:10;97973.44;;;9.47;81.78
57594;BME280;43423;46.510;6.686;2024-01-30T12:32:37;97966.41;;;9.46;82.64
57594;BME280;43423;46.510;6.686;2024-01-30T12:35:10;97970.31;;;9.33;82.52
57594;BME280;43423;46.510;6.686;2024-01-30T12:37:39;97961.84;;;9.56;81.52
57594;BME280;43423;46.510;6.686;2024-01-30T12:40:06;97965.56;;;9.62;80.87
57594;BME280;43423;46.510;6.686;2024-01-30T12:42:33;97952.53;;;9.66;80.94
57594;BME280;43423;46.510;6.686;2024-01-30T12:44:58;97956.53;;;9.91;81.29
57594;BME280;43423;46.510;6.686;2024-01-30T12:47:25;97951.72;;;10.07;79.61
57594;BME280;43423;46.510;6.686;2024-01-30T12:49:51;97949.06;;;10.17;79.61
57594;BME280;43423;46.510;6.686;2024-01-30T12:52:21;97954.94;;;10.44;77.95
57594;BME280;43423;46.510;6.686;2024-01-30T12:54:50;97946.56;;;11.08;75.79
57594;BME280;43423;46.510;6.686;2024-01-30T12:57:17;97941.78;;;11.65;74.37
57594;BME280;43423;46.510;6.686;2024-01-30T12:59:44;97943.75;;;12.08;72.04
57594;BME280;43423;46.510;6.686;2024-01-30T13:02:12;97948.72;;;12.22;69.68
57594;BME280;43423;46.510;6.686;2024-01-30T13:04:37;97951.91;;;12.61;66.03
57594;BME280;43423;46.510;6.686;2024-01-30T13:07:03;97946.03;;;12.41;68.27